Report METAR

 

LIPB - Bolzano(Civ/It-A, Italy
Distance from station: NNE 37km
Dati ricevuti: 25/05/2020 12:50
Parz. nuvoloso
Parz. nuvoloso
 Vento da Variabile
Vento: Variabile 4 km/h
Temperatura: 24°C
P.to Rugiada: 4°C
Umidità: 27%
Barometro: 1025 hPa
Nuvole: Parz. nuvoloso
Visibility: 10 km
Cloud details: Parz. nuvoloso 3048 m
2020/05/25 10:50 LIPB 251050Z VRB02KT 9999 SCT100 24/04 Q1025
LIVR - Rolle Pass, Italy
Distance from station: ENE 46km
Dati ricevuti: 25/05/2020 11:55
Molto nuvoloso
Molto nuvoloso
 Vento da NO
Vento: NO 37 km/h
Temperatura: 9°C
Temperatura Vento: 4°C
P.to Rugiada: -2°C
Umidità: 46%
Barometro: 1029 hPa
Nuvole: Molto nuvoloso
Visibility: 10 km
Cloud details: Molto nuvoloso 1067 m
2020/05/25 09:55 LIVR 250955Z 32020KT 9999 BKN035 09/M02 Q1029 RMK BKN MON CLD CIME VIS MIN 9999
 
LIPS - Istrana (it-Afb), Italy
Distance from station: SE 86km
Dati ricevuti: 25/05/2020 11:55
Few Clouds
Few Clouds
 Vento da Variabile
Vento: Variabile 0 km/h
Temperatura: 23°C
P.to Rugiada: 14°C
Umidità: 57%
Barometro: 1025 hPa
Nuvole: Few Clouds
Visibility: 10 km
Cloud details: Few Clouds 762 m
2020/05/25 09:55 LIPS 250955Z /////KT 9999 FEW025 23/14 Q1025 RMK FEW VIS MIN 9999 WIND THR26 19006KT WIND THR08 25006KT BLU
LIPX - Villafranca(Cv/M, Italy
Distance from station: SSO 88km
Dati ricevuti: 25/05/2020 12:50
Sereno
Sereno
 Vento da Variabile
Vento: Variabile 9 km/h
Temperatura: 24°C
P.to Rugiada: 8°C
Umidità: 36%
Barometro: 1025 hPa
Summary: Sereno
Visibility: superiore a 10 km
2020/05/25 10:50 LIPX 251050Z VRB05KT CAVOK 24/08 Q1025
 
LIPH - Treviso(Civ/It-A, Italy
Distance from station: SE 94km
Dati ricevuti: 25/05/2020 12:50
Sereno
Sereno
 Vento da SSO
Vento: SSO 7 km/h
Temperatura: 24°C
P.to Rugiada: 9°C
Umidità: 39%
Barometro: 1025 hPa
Summary: Sereno
Visibility: superiore a 10 km
2020/05/25 10:50 LIPH 251050Z 21004KT 140V280 CAVOK 24/09 Q1025
LIVE - Resia Pass, Italy
Distance from station: NO 95km
Dati ricevuti: 25/05/2020 11:55
Parz. nuvoloso
Parz. nuvoloso
 Vento da N
Vento: N 13 km/h
Temperatura: 15°C
P.to Rugiada: 5°C
Umidità: 51%
Barometro: 1030 hPa
Nuvole: Parz. nuvoloso
Visibility: 10 km
Cloud details: Parz. nuvoloso 853 m
2020/05/25 09:55 LIVE 250955Z 36007KT 9999 SCT028 15/05 Q1030 RMK SCT VIS MIN 9999
 
LIPU - Padova (civ/It-A, Italy
Distance from station: SSE 98km
Dati ricevuti: 24/05/2020 08:00
DATI Obsoleti
Sereno
Sereno
 Vento da Variabile
Vento: Variabile 4 km/h
Temperatura: 18°C
P.to Rugiada: 15°C
Umidità: 83%
Barometro: 1024 hPa
Summary: Sereno
Visibility: superiore a 10 km
2020/05/24 06:00 LIPU 240600Z VRB02KT CAVOK 18/15 Q1024